馬公航空站 - ATIS

METAR RCQC 120230Z 01010KT 9999 FEW012 24/15 Q1017 NOSIG RMK A3005=

站台狀態:Offline
最後更新:2019-11-12 10:30:01